Darmstadt, Illinois
Current Conditions -  °F | °C
As of 7:35 AM on Saturday 25 Oct 2014 (Local Time) from KSAR Reporting Station
Broken Clouds Broken Clouds  
Wind Chill: 58°   Ceiling: 3700
Heat Index: 58°   Visibility: 10mi
Dew Point: 56°   Wind: 0mph
Humidity: 93%   Direction: NA
Pressure: 30.03"   Gusts: NA
Location:  38.2866°N, 89.7872°W
Report Text: KSAR 251235Z AUTO 00000KT 10SM BKN037 14/13 A3003 RMK AO2 T01420131
Loading
Personal Weather Stations






























Interactive Weather Map
Tropical Storm Tracking
New forecast layout! Learn more

10-Day Weather Forecast

Advertisements
Track Severe Weather on mobile